Time;durP1;ratioP1;P1;durP2;ratioP2;P2;SDS_P1;SDS_P2;PMS_P1;PMS_P2;Temp;Humidity;BMP_temperature;BMP_pressure;BME280_temperature;BME280_humidity;BME280_pressure;Samples;Min_cycle;Max_cycle;Signal;HPM_P1;HPM_P2
2021/06/28 00:01:12;;;;;;;8.00;7.30;;;21.50;98.30;;;;;;4099085;28;20485;-84
2021/06/28 00:03:15;;;;;;;9.67;8.73;;;21.40;98.30;;;;;;4102747;28;21301;-84
2021/06/28 00:05:20;;;;;;;10.07;7.77;;;21.40;98.30;;;;;;4106231;28;20852;-83
2021/06/28 00:07:23;;;;;;;12.43;11.23;;;21.40;98.30;;;;;;4097806;28;20511;-83
2021/06/28 00:09:26;;;;;;;28.40;24.10;;;21.30;98.30;;;;;;4110337;28;20964;-83
2021/06/28 00:11:29;;;;;;;21.00;18.70;;;21.20;98.30;;;;;;4104116;28;20525;-83
2021/06/28 00:13:33;;;;;;;71.93;62.90;;;21.20;98.30;;;;;;4105725;28;20522;-83
2021/06/28 00:15:37;;;;;;;22.57;20.23;;;21.30;98.30;;;;;;4102436;28;20551;-83
2021/06/28 00:17:45;;;;;;;13.77;12.20;;;21.30;98.30;;;;;;4100371;28;20465;-83
2021/06/28 00:19:48;;;;;;;12.60;10.80;;;21.20;98.30;;;;;;4098786;28;20545;-83
2021/06/28 00:21:52;;;;;;;10.03;9.13;;;21.10;98.30;;;;;;4097561;28;20829;-83
2021/06/28 00:23:55;;;;;;;14.30;12.80;;;21.20;98.30;;;;;;4097532;28;20465;-83
2021/06/28 00:25:59;;;;;;;20.77;18.17;;;21.10;98.30;;;;;;4103012;28;20550;-83
2021/06/28 00:28:03;;;;;;;18.53;13.90;;;21.00;98.30;;;;;;4113567;28;20500;-83
2021/06/28 00:30:07;;;;;;;12.47;11.17;;;20.90;98.30;;;;;;4108069;28;20801;-83
2021/06/28 00:32:10;;;;;;;14.33;12.60;;;20.80;98.30;;;;;;4096637;28;20491;-84
2021/06/28 00:34:13;;;;;;;12.77;11.57;;;20.80;98.30;;;;;;4097705;28;20468;-83
2021/06/28 00:36:16;;;;;;;12.90;11.03;;;20.70;98.30;;;;;;4097426;28;21032;-83
2021/06/28 00:38:20;;;;;;;10.30;9.30;;;20.70;98.30;;;;;;4097530;28;20468;-83
2021/06/28 00:40:23;;;;;;;12.70;10.20;;;20.60;98.30;;;;;;4096786;28;20489;-82
2021/06/28 00:42:26;;;;;;;11.60;10.50;;;20.60;98.30;;;;;;4097699;28;20806;-83
2021/06/28 00:44:29;;;;;;;12.43;11.23;;;20.60;98.30;;;;;;4097553;28;20465;-82
2021/06/28 00:46:33;;;;;;;12.20;11.07;;;20.60;98.30;;;;;;4097311;28;21007;-82
2021/06/28 00:48:36;;;;;;;47.67;35.53;;;20.60;98.30;;;;;;4097230;28;20477;-83
2021/06/28 00:50:42;;;;;;;20.70;18.30;;;20.50;98.30;;;;;;4097061;28;20485;-83
2021/06/28 00:52:47;;;;;;;38.53;31.30;;;20.50;98.30;;;;;;4097667;28;20477;-83
2021/06/28 00:54:51;;;;;;;17.70;15.90;;;20.50;98.30;;;;;;4097470;28;20957;-82
2021/06/28 00:56:55;;;;;;;14.43;12.00;;;20.50;98.30;;;;;;4097231;28;20507;-83
2021/06/28 00:59:01;;;;;;;14.07;12.77;;;20.60;98.30;;;;;;4099803;28;20477;-84
2021/06/28 01:01:05;;;;;;;13.67;12.00;;;20.50;98.30;;;;;;4103231;28;20969;-84
2021/06/28 01:03:09;;;;;;;15.80;14.20;;;20.40;98.30;;;;;;4125227;28;21000;-83
2021/06/28 01:05:14;;;;;;;18.77;15.63;;;20.30;98.30;;;;;;4117118;28;20487;-83
2021/06/28 01:07:17;;;;;;;15.43;11.37;;;20.30;98.30;;;;;;4105728;28;20494;-83
2021/06/28 01:09:21;;;;;;;14.80;13.20;;;20.40;98.30;;;;;;4111433;28;20475;-84
2021/06/28 01:11:25;;;;;;;15.00;13.40;;;20.40;98.30;;;;;;4114374;28;20866;-83
2021/06/28 01:13:30;;;;;;;12.30;11.00;;;20.40;98.30;;;;;;4105347;28;20533;-84
2021/06/28 01:15:33;;;;;;;15.20;10.93;;;20.30;98.30;;;;;;4104351;28;20469;-83
2021/06/28 01:17:37;;;;;;;14.23;12.83;;;20.30;98.30;;;;;;4106232;28;20464;-84
2021/06/28 01:19:46;;;;;;;14.77;13.13;;;20.30;98.30;;;;;;4105192;28;20554;-83
2021/06/28 01:21:51;;;;;;;13.40;12.00;;;20.20;98.30;;;;;;4102759;28;20960;-84
2021/06/28 01:23:56;;;;;;;13.60;11.50;;;20.20;98.30;;;;;;4104072;28;20469;-84
2021/06/28 01:26:03;;;;;;;13.07;11.77;;;20.20;98.30;;;;;;4103116;28;20465;-83
2021/06/28 01:28:06;;;;;;;16.20;12.73;;;20.20;98.30;;;;;;4101525;29;20472;-84
2021/06/28 01:30:12;;;;;;;13.43;12.03;;;20.20;98.30;;;;;;4100730;28;20461;-84
2021/06/28 01:32:15;;;;;;;14.50;11.60;;;20.20;98.30;;;;;;4101099;28;20969;-84
2021/06/28 01:34:18;;;;;;;14.73;13.23;;;20.00;98.30;;;;;;4103194;28;20852;-84
2021/06/28 01:36:21;;;;;;;15.93;13.67;;;20.00;98.30;;;;;;4103799;28;20956;-84
2021/06/28 01:38:25;;;;;;;14.20;12.70;;;20.00;98.30;;;;;;4103794;28;20470;-84
2021/06/28 01:40:30;;;;;;;14.30;12.50;;;20.00;98.30;;;;;;4101941;28;21358;-84
2021/06/28 01:42:35;;;;;;;22.30;19.97;;;20.10;98.30;;;;;;4102984;28;20453;-84
2021/06/28 01:44:38;;;;;;;28.60;23.90;;;20.10;98.30;;;;;;4102233;28;20479;-84
2021/06/28 01:46:41;;;;;;;27.33;23.33;;;20.20;98.30;;;;;;4101587;28;20864;-85
2021/06/28 01:48:45;;;;;;;19.83;17.70;;;20.20;98.30;;;;;;4102524;28;20476;-84
2021/06/28 01:50:48;;;;;;;15.70;14.10;;;20.20;98.30;;;;;;4102095;28;20485;-84
2021/06/28 01:52:51;;;;;;;15.13;13.63;;;20.20;98.30;;;;;;4103486;28;20548;-84
2021/06/28 01:54:54;;;;;;;14.40;12.90;;;20.10;98.30;;;;;;4103803;28;20826;-83
2021/06/28 01:56:59;;;;;;;15.60;14.00;;;20.00;98.30;;;;;;4102480;28;20888;-83
2021/06/28 01:59:02;;;;;;;14.73;12.90;;;20.00;98.30;;;;;;4103793;28;20465;-83
2021/06/28 02:01:07;;;;;;;16.00;14.43;;;20.00;98.30;;;;;;4102709;28;20571;-84
2021/06/28 02:03:11;;;;;;;15.13;13.53;;;19.90;98.30;;;;;;4116804;28;20464;-84
2021/06/28 02:05:14;;;;;;;15.43;13.80;;;19.80;98.30;;;;;;4110367;28;20465;-84
2021/06/28 02:07:18;;;;;;;18.50;14.20;;;19.80;98.30;;;;;;4105231;28;20479;-84
2021/06/28 02:09:21;;;;;;;16.10;14.30;;;19.80;98.30;;;;;;4106284;28;20476;-84
2021/06/28 02:11:24;;;;;;;16.00;14.27;;;19.50;98.30;;;;;;4112036;28;20490;-84
2021/06/28 02:13:32;;;;;;;14.90;12.90;;;19.50;98.30;;;;;;4101905;28;20481;-84
2021/06/28 02:15:36;;;;;;;17.50;14.53;;;19.60;98.30;;;;;;4111048;28;20464;-84
2021/06/28 02:17:39;;;;;;;15.77;14.20;;;19.50;98.30;;;;;;4110580;28;20469;-84
2021/06/28 02:19:46;;;;;;;15.60;14.20;;;19.60;98.30;;;;;;4119957;28;20940;-84
2021/06/28 02:21:49;;;;;;;15.83;13.63;;;19.60;98.30;;;;;;4108257;28;20584;-84
2021/06/28 02:23:53;;;;;;;15.47;13.27;;;19.40;98.30;;;;;;4115795;28;20829;-85
2021/06/28 02:25:58;;;;;;;16.37;13.90;;;19.20;98.30;;;;;;4109437;28;20562;-84
2021/06/28 02:28:01;;;;;;;15.13;13.60;;;19.10;98.30;;;;;;4105691;28;20465;-84
2021/06/28 02:30:08;;;;;;;17.07;14.67;;;19.10;98.30;;;;;;4105822;28;20965;-84
2021/06/28 02:32:11;;;;;;;17.40;15.53;;;19.20;98.30;;;;;;4100635;28;20563;-84
2021/06/28 02:34:14;;;;;;;19.57;16.03;;;19.20;98.30;;;;;;4099494;28;20824;-84
2021/06/28 02:36:17;;;;;;;17.17;14.30;;;19.30;98.30;;;;;;4098899;28;20565;-84
2021/06/28 02:38:21;;;;;;;16.63;14.37;;;19.30;98.30;;;;;;4099986;28;20552;-84
2021/06/28 02:40:24;;;;;;;15.93;14.10;;;19.30;98.30;;;;;;4099441;28;20496;-84
2021/06/28 02:42:27;;;;;;;14.13;12.70;;;19.40;98.30;;;;;;4101552;28;20465;-84
2021/06/28 02:44:30;;;;;;;17.60;15.70;;;19.20;98.30;;;;;;4108628;28;20976;-84
2021/06/28 02:46:34;;;;;;;17.57;15.00;;;19.10;98.30;;;;;;4105312;28;20465;-84
2021/06/28 02:48:37;;;;;;;16.53;14.57;;;19.00;98.30;;;;;;4105170;28;20480;-84
2021/06/28 02:50:41;;;;;;;29.57;24.93;;;18.90;98.30;;;;;;4118734;28;20554;-84
2021/06/28 02:52:44;;;;;;;27.90;23.40;;;19.00;98.30;;;;;;4115901;28;20509;-84
2021/06/28 02:54:47;;;;;;;22.83;19.37;;;19.10;98.30;;;;;;4117428;28;20475;-85
2021/06/28 02:56:50;;;;;;;20.20;18.00;;;19.30;98.30;;;;;;4109430;28;20949;-84
2021/06/28 02:58:55;;;;;;;17.77;15.30;;;19.30;98.30;;;;;;4098374;28;20480;-84
2021/06/28 03:01:00;;;;;;;18.07;16.20;;;19.30;98.30;;;;;;4098248;28;20500;-84
2021/06/28 03:03:05;;;;;;;19.30;16.90;;;19.30;98.30;;;;;;4102176;28;20476;-84
2021/06/28 03:05:10;;;;;;;17.43;15.63;;;19.40;98.30;;;;;;4101855;28;20471;-84
2021/06/28 03:07:13;;;;;;;16.97;15.20;;;19.30;98.30;;;;;;4098264;28;20476;-84
2021/06/28 03:09:16;;;;;;;17.83;15.93;;;19.20;98.30;;;;;;4098176;28;20469;-84
2021/06/28 03:11:21;;;;;;;18.23;16.07;;;19.20;98.30;;;;;;4098398;28;20485;-84
2021/06/28 03:13:25;;;;;;;17.70;15.80;;;19.20;98.30;;;;;;4097110;28;20600;-84
2021/06/28 03:15:58;;;;;;;18.03;16.13;;;19.20;98.30;;;;;;4101439;28;20465;-84
2021/06/28 03:18:01;;;;;;;16.33;14.30;;;19.20;98.30;;;;;;4098561;28;20484;-84
2021/06/28 03:20:08;;;;;;;17.57;15.73;;;19.20;98.30;;;;;;4114991;28;20464;-84
2021/06/28 03:22:11;;;;;;;19.80;16.00;;;19.30;98.30;;;;;;4100330;28;20469;-84
2021/06/28 03:24:14;;;;;;;16.77;14.40;;;19.20;98.30;;;;;;4099014;28;20489;-84
2021/06/28 03:26:17;;;;;;;17.47;15.13;;;19.20;98.30;;;;;;4100271;28;20469;-83
2021/06/28 03:28:20;;;;;;;20.20;16.20;;;19.20;98.30;;;;;;4113638;28;20503;-84
2021/06/28 03:30:23;;;;;;;21.47;17.80;;;19.10;98.30;;;;;;4111231;28;20490;-84
2021/06/28 03:32:26;;;;;;;33.53;26.43;;;19.10;98.30;;;;;;4103945;28;20870;-84
2021/06/28 03:34:29;;;;;;;18.80;16.80;;;19.10;98.30;;;;;;4113411;28;20465;-83
2021/06/28 03:36:34;;;;;;;17.80;15.63;;;19.10;98.30;;;;;;4115507;28;20464;-84
2021/06/28 03:38:40;;;;;;;18.90;16.37;;;19.00;98.30;;;;;;4112874;28;20464;-85
2021/06/28 03:40:43;;;;;;;19.20;16.60;;;19.10;98.30;;;;;;4106205;28;20481;-83
2021/06/28 03:42:46;;;;;;;18.30;15.10;;;19.20;98.30;;;;;;4113101;28;20559;-84
2021/06/28 03:44:49;;;;;;;20.80;17.07;;;19.20;98.30;;;;;;4110026;28;20488;-84
2021/06/28 03:46:52;;;;;;;16.67;14.97;;;19.20;98.30;;;;;;4098453;28;20972;-85
2021/06/28 03:48:56;;;;;;;15.53;13.93;;;19.30;98.30;;;;;;4106827;28;20491;-85
2021/06/28 03:50:59;;;;;;;17.80;14.63;;;19.40;98.30;;;;;;4106824;28;20520;-85
2021/06/28 03:53:04;;;;;;;17.20;14.40;;;19.40;98.30;;;;;;4115087;28;20521;-84
2021/06/28 03:55:08;;;;;;;16.53;14.73;;;19.40;98.30;;;;;;4106999;28;20487;-84
2021/06/28 03:57:11;;;;;;;16.20;14.50;;;19.50;98.30;;;;;;4108847;28;20477;-84
2021/06/28 03:59:14;;;;;;;18.50;16.50;;;19.40;98.30;;;;;;4099399;28;20891;-84
2021/06/28 04:01:17;;;;;;;17.17;14.67;;;19.40;98.30;;;;;;4109424;28;20556;-85
2021/06/28 04:03:25;;;;;;;16.73;13.50;;;19.20;98.30;;;;;;4112177;28;20854;-84
2021/06/28 04:05:28;;;;;;;16.03;14.20;;;19.20;98.30;;;;;;4103775;28;20551;-84
2021/06/28 04:07:31;;;;;;;17.87;15.23;;;19.30;98.30;;;;;;4109899;28;20555;-84
2021/06/28 04:09:35;;;;;;;14.47;13.07;;;19.30;98.30;;;;;;4110799;28;20481;-84
2021/06/28 04:11:38;;;;;;;14.00;12.60;;;19.40;98.30;;;;;;4105335;28;20556;-84
2021/06/28 04:13:41;;;;;;;16.80;14.37;;;19.50;98.30;;;;;;4105541;28;20490;-84
2021/06/28 04:15:44;;;;;;;15.80;13.50;;;19.50;98.30;;;;;;4104638;28;20815;-85
2021/06/28 04:17:49;;;;;;;14.20;12.70;;;19.60;98.30;;;;;;4103716;28;20919;-84
2021/06/28 04:19:52;;;;;;;16.60;14.70;;;19.70;98.30;;;;;;4104284;28;20842;-84
2021/06/28 04:21:55;;;;;;;15.00;13.40;;;19.70;98.30;;;;;;4102153;28;20493;-84
2021/06/28 04:24:01;;;;;;;16.03;14.20;;;19.70;98.30;;;;;;4106356;28;20449;-83
2021/06/28 04:26:06;;;;;;;17.90;15.13;;;19.80;98.30;;;;;;4109867;28;20505;-83
2021/06/28 04:28:09;;;;;;;15.83;14.13;;;19.80;98.30;;;;;;4110211;28;21040;-84
2021/06/28 04:30:14;;;;;;;15.60;13.63;;;19.80;98.30;;;;;;4106158;28;20492;-84
2021/06/28 04:32:17;;;;;;;16.30;14.70;;;19.90;98.30;;;;;;4110500;28;20493;-84
2021/06/28 04:34:20;;;;;;;15.07;13.57;;;19.90;98.30;;;;;;4120423;28;20571;-85
2021/06/28 04:36:24;;;;;;;16.30;14.60;;;20.00;98.30;;;;;;4113820;28;20461;-84
2021/06/28 04:38:27;;;;;;;15.70;13.93;;;19.90;98.30;;;;;;4114091;28;20457;-83
2021/06/28 04:40:31;;;;;;;17.00;15.27;;;19.90;98.30;;;;;;4126372;28;20492;-84
2021/06/28 04:42:35;;;;;;;17.30;14.60;;;19.90;98.30;;;;;;4109784;28;20504;-83
2021/06/28 04:44:38;;;;;;;15.40;13.80;;;19.90;98.30;;;;;;4105515;28;20496;-84
2021/06/28 04:46:45;;;;;;;17.47;14.90;;;19.90;98.30;;;;;;4106448;28;20495;-84
2021/06/28 04:48:48;;;;;;;17.83;13.37;;;19.90;98.30;;;;;;4101927;29;20961;-84
2021/06/28 04:50:51;;;;;;;16.80;13.80;;;19.90;98.30;;;;;;4103879;28;20485;-84
2021/06/28 04:52:55;;;;;;;16.00;13.83;;;19.90;98.30;;;;;;4112048;28;20484;-84
2021/06/28 04:54:58;;;;;;;18.77;15.40;;;20.00;98.30;;;;;;4110435;28;20528;-84
2021/06/28 04:57:02;;;;;;;17.83;13.20;;;20.00;98.30;;;;;;4107556;28;20532;-84
2021/06/28 04:59:06;;;;;;;15.90;14.20;;;19.90;98.30;;;;;;4104057;28;20508;-84
2021/06/28 05:01:09;;;;;;;18.30;16.37;;;19.90;98.30;;;;;;4116157;28;20525;-83
2021/06/28 05:03:12;;;;;;;16.23;14.27;;;19.90;98.30;;;;;;4117360;28;20469;-85
2021/06/28 05:05:16;;;;;;;15.53;13.93;;;19.90;98.30;;;;;;4117772;28;20445;-84
2021/06/28 05:07:19;;;;;;;15.53;13.90;;;19.90;98.30;;;;;;4129611;28;20456;-84
2021/06/28 05:09:22;;;;;;;14.70;13.20;;;19.80;98.30;;;;;;4128681;28;20465;-84
2021/06/28 05:11:25;;;;;;;14.20;12.23;;;19.90;98.30;;;;;;4117416;28;20519;-85
2021/06/28 05:13:28;;;;;;;14.30;13.00;;;19.90;98.30;;;;;;4117934;28;20563;-84
2021/06/28 05:15:32;;;;;;;15.00;13.03;;;19.90;98.30;;;;;;4114191;28;20999;-83
2021/06/28 05:17:38;;;;;;;14.63;13.13;;;20.00;98.30;;;;;;4111514;28;20469;-83
2021/06/28 05:19:41;;;;;;;15.83;13.20;;;20.00;98.30;;;;;;4101927;28;20970;-84
2021/06/28 05:21:44;;;;;;;16.73;13.57;;;19.90;98.30;;;;;;4103933;28;20492;-84
2021/06/28 05:23:47;;;;;;;12.40;11.10;;;20.00;98.30;;;;;;4107714;28;20903;-84
2021/06/28 05:25:50;;;;;;;13.00;11.70;;;20.10;98.30;;;;;;4101220;28;20464;-84
2021/06/28 05:27:53;;;;;;;14.10;11.93;;;20.00;98.30;;;;;;4101436;28;20553;-84
2021/06/28 05:29:56;;;;;;;13.27;11.87;;;20.00;98.30;;;;;;4100830;28;20477;-84
2021/06/28 05:32:01;;;;;;;18.23;12.37;;;20.00;98.30;;;;;;4100713;28;20473;-84
2021/06/28 05:34:04;;;;;;;12.67;11.47;;;20.00;98.30;;;;;;4115171;28;20503;-84
2021/06/28 05:36:08;;;;;;;12.87;11.67;;;20.10;98.30;;;;;;4114371;28;20555;-84
2021/06/28 05:38:11;;;;;;;19.37;12.40;;;20.20;98.30;;;;;;4101283;28;20568;-84
2021/06/28 05:40:14;;;;;;;13.37;12.03;;;20.30;98.30;;;;;;4101024;28;20488;-84
2021/06/28 05:42:17;;;;;;;13.07;11.47;;;20.40;98.30;;;;;;4108536;28;20496;-84
2021/06/28 05:44:20;;;;;;;11.60;10.50;;;20.30;98.30;;;;;;4116817;28;20465;-84
2021/06/28 05:46:23;;;;;;;13.20;11.37;;;20.40;98.30;;;;;;4117556;28;20834;-85
2021/06/28 05:48:28;;;;;;;14.33;11.93;;;20.30;98.30;;;;;;4115973;28;20479;-84
2021/06/28 05:50:31;;;;;;;11.73;10.57;;;20.40;98.30;;;;;;4105247;28;20859;-84
2021/06/28 05:52:34;;;;;;;13.53;11.37;;;20.50;98.30;;;;;;4108077;28;20504;-84
2021/06/28 05:54:37;;;;;;;13.10;11.70;;;20.60;98.30;;;;;;4106714;28;20552;-84
2021/06/28 05:56:40;;;;;;;12.47;11.20;;;20.50;98.30;;;;;;4109721;28;20474;-84
2021/06/28 05:58:44;;;;;;;13.07;11.67;;;20.60;98.30;;;;;;4103631;28;21006;-84
2021/06/28 06:00:47;;;;;;;12.40;11.10;;;20.70;98.30;;;;;;4112450;28;20511;-84
2021/06/28 06:02:50;;;;;;;12.83;11.43;;;20.90;98.30;;;;;;4112673;28;20488;-84
2021/06/28 06:04:55;;;;;;;15.03;12.17;;;20.90;98.30;;;;;;4122947;28;20441;-85
2021/06/28 06:06:59;;;;;;;14.40;12.90;;;20.80;98.30;;;;;;4110319;28;20469;-84
2021/06/28 06:09:02;;;;;;;11.90;10.70;;;21.00;98.30;;;;;;4099938;28;20467;-84
2021/06/28 06:11:05;;;;;;;12.33;10.47;;;21.10;98.30;;;;;;4099778;28;20826;-85
2021/06/28 06:13:08;;;;;;;12.80;11.10;;;21.20;98.30;;;;;;4099614;28;20533;-84
2021/06/28 06:15:15;;;;;;;12.23;11.03;;;21.30;98.30;;;;;;4100084;28;20969;-85
2021/06/28 06:17:21;;;;;;;10.17;9.17;;;21.40;98.30;;;;;;4100430;29;20856;-85
2021/06/28 06:19:25;;;;;;;11.93;10.47;;;21.40;98.30;;;;;;4100552;28;20516;-84
2021/06/28 06:21:34;;;;;;;11.20;10.00;;;21.50;98.30;;;;;;4099593;29;20486;-84
2021/06/28 06:23:37;;;;;;;10.37;9.37;;;21.40;98.30;;;;;;4099980;28;20470;-84
2021/06/28 06:25:41;;;;;;;11.70;10.10;;;21.60;98.30;;;;;;4112600;28;21253;-84
2021/06/28 06:27:44;;;;;;;10.53;9.53;;;21.60;98.30;;;;;;4104231;28;20508;-84
2021/06/28 06:29:47;;;;;;;10.43;9.27;;;21.70;98.30;;;;;;4099465;28;20497;-84
2021/06/28 06:31:50;;;;;;;12.90;9.50;;;21.80;98.30;;;;;;4099310;28;20984;-85
2021/06/28 06:33:56;;;;;;;11.27;10.03;;;21.80;98.30;;;;;;4114300;28;20472;-85
2021/06/28 06:36:03;;;;;;;15.37;9.60;;;21.70;98.30;;;;;;4113752;28;20484;-84
2021/06/28 06:38:08;;;;;;;16.73;15.00;;;21.60;98.30;;;;;;4108800;28;20464;-85
2021/06/28 06:40:14;;;;;;;11.77;10.67;;;21.70;98.30;;;;;;4154187;22;21039;-84
2021/06/28 06:42:20;;;;;;;10.07;9.17;;;21.70;98.30;;;;;;4199029;28;20443;-84
2021/06/28 06:44:23;;;;;;;10.10;9.20;;;21.90;98.30;;;;;;4199021;28;20463;-84
2021/06/28 06:46:26;;;;;;;10.00;9.00;;;22.10;98.30;;;;;;4198509;28;20451;-85
2021/06/28 06:48:32;;;;;;;12.03;9.73;;;22.20;98.30;;;;;;4198942;28;20505;-84
2021/06/28 06:50:35;;;;;;;10.60;9.50;;;22.30;98.30;;;;;;4198328;28;21029;-84
2021/06/28 07:03:58;;;;;;;10.00;8.97;;;22.80;98.30;;;;;;4487674;23;20539;-83
2021/06/28 07:06:01;;;;;;;8.90;8.10;;;22.90;98.30;;;;;;4165399;28;20472;-83
2021/06/28 07:08:05;;;;;;;8.80;7.13;;;23.00;98.30;;;;;;4165335;28;20468;-83
2021/06/28 07:10:10;;;;;;;9.10;8.20;;;23.10;98.30;;;;;;4164099;28;20460;-83
2021/06/28 07:12:14;;;;;;;9.27;8.27;;;23.30;98.30;;;;;;4164745;28;20468;-83
2021/06/28 07:14:17;;;;;;;10.33;8.00;;;23.50;98.30;;;;;;4164981;28;20504;-83
2021/06/28 07:16:24;;;;;;;8.93;8.10;;;23.50;98.30;;;;;;4165048;28;20489;-83
2021/06/28 07:18:27;;;;;;;8.80;7.80;;;23.60;98.30;;;;;;4165213;28;20492;-84
2021/06/28 07:20:33;;;;;;;8.50;7.70;;;23.70;98.30;;;;;;4170411;28;20479;-83
2021/06/28 07:22:37;;;;;;;8.10;7.30;;;23.90;98.30;;;;;;4162496;28;20837;-83
2021/06/28 07:24:40;;;;;;;11.03;7.83;;;24.00;98.30;;;;;;4148661;28;20478;-83
2021/06/28 07:26:43;;;;;;;10.77;7.90;;;24.30;98.30;;;;;;4149089;28;20462;-83
2021/06/28 07:28:46;;;;;;;7.77;6.97;;;24.40;98.30;;;;;;4148660;28;20813;-83
2021/06/28 07:30:49;;;;;;;7.20;6.40;;;24.40;98.30;;;;;;4148635;28;20548;-83
2021/06/28 07:32:53;;;;;;;9.97;9.07;;;24.50;98.30;;;;;;4156164;28;20475;-83
2021/06/28 07:34:57;;;;;;;9.97;8.97;;;24.60;98.30;;;;;;4165043;28;20469;-83
2021/06/28 07:37:01;;;;;;;7.30;6.70;;;24.80;98.30;;;;;;4165154;28;20929;-83
2021/06/28 07:39:05;;;;;;;8.93;6.80;;;24.70;98.30;;;;;;4158594;28;20550;-84
2021/06/28 07:41:10;;;;;;;7.37;6.60;;;24.70;98.30;;;;;;4148524;28;20521;-84
2021/06/28 07:43:17;;;;;;;7.50;6.90;;;24.80;98.30;;;;;;4158844;28;21059;-84
2021/06/28 07:45:25;;;;;;;8.67;7.60;;;24.90;98.30;;;;;;4165074;28;20461;-84
2021/06/28 07:47:30;;;;;;;7.60;7.00;;;25.10;98.30;;;;;;4164963;28;20475;-83
2021/06/28 07:49:36;;;;;;;7.50;6.90;;;25.10;98.30;;;;;;4164898;28;20972;-84
2021/06/28 07:51:39;;;;;;;6.73;6.03;;;25.20;97.80;;;;;;4164664;28;20471;-84
2021/06/28 07:53:43;;;;;;;9.40;8.50;;;25.20;98.00;;;;;;4164788;28;20488;-83
2021/06/28 07:55:47;;;;;;;12.30;10.80;;;25.20;97.30;;;;;;4164939;28;20485;-84
2021/06/28 07:57:52;;;;;;;18.90;16.23;;;25.20;97.30;;;;;;4164740;28;21027;-84
2021/06/28 07:59:56;;;;;;;12.57;11.30;;;25.30;97.80;;;;;;4151087;28;20541;-83
2021/06/28 08:01:59;;;;;;;8.43;7.63;;;25.30;97.60;;;;;;4148069;28;20469;-84
2021/06/28 08:04:02;;;;;;;11.50;6.63;;;25.40;96.50;;;;;;4148144;28;20533;-83
2021/06/28 08:06:08;;;;;;;7.07;6.37;;;25.20;96.60;;;;;;4150745;28;20479;-84
2021/06/28 08:08:15;;;;;;;7.10;6.50;;;24.90;96.40;;;;;;4164723;28;20473;-84
2021/06/28 08:10:20;;;;;;;6.80;6.20;;;24.90;97.10;;;;;;4164238;28;20813;-83
2021/06/28 08:12:23;;;;;;;7.00;6.40;;;24.90;97.70;;;;;;4148435;28;20565;-84
2021/06/28 08:14:38;;;;;;;7.87;6.27;;;25.00;98.20;;;;;;4148574;28;20488;-84
2021/06/28 08:16:41;;;;;;;7.20;6.60;;;25.00;96.70;;;;;;4148664;28;20509;-83
2021/06/28 08:18:47;;;;;;;7.20;6.60;;;24.90;95.70;;;;;;4148280;28;20474;-83
2021/06/28 08:21:07;;;;;;;6.63;6.03;;;24.90;95.00;;;;;;4148273;28;20469;-83
2021/06/28 08:23:13;;;;;;;6.93;6.30;;;24.90;95.70;;;;;;4159429;28;20497;-84
2021/06/28 08:25:16;;;;;;;8.17;6.60;;;25.00;96.00;;;;;;4167515;28;20472;-83
2021/06/28 08:27:21;;;;;;;6.20;5.70;;;25.00;95.30;;;;;;4168041;28;20539;-83
2021/06/28 08:29:27;;;;;;;7.03;6.33;;;24.90;94.70;;;;;;4168005;28;20471;-84
2021/06/28 08:31:30;;;;;;;6.80;6.30;;;24.90;95.10;;;;;;4167774;28;20477;-84
2021/06/28 08:33:45;;;;;;;6.40;5.90;;;25.00;95.50;;;;;;4168082;28;20488;-84
2021/06/28 08:35:48;;;;;;;6.50;6.00;;;24.90;93.90;;;;;;4167945;28;20471;-83
2021/06/28 08:37:51;;;;;;;8.83;6.97;;;24.90;94.50;;;;;;4167822;28;20475;-84
2021/06/28 08:39:55;;;;;;;6.70;5.93;;;25.10;94.60;;;;;;4167503;28;21000;-84
2021/06/28 08:41:58;;;;;;;6.50;5.90;;;25.30;94.20;;;;;;4167396;28;20472;-84
2021/06/28 08:44:03;;;;;;;6.53;5.87;;;25.40;94.70;;;;;;4151451;28;20544;-83
2021/06/28 08:46:07;;;;;;;6.77;6.17;;;25.40;92.50;;;;;;4151771;28;20507;-83
2021/06/28 08:48:10;;;;;;;6.20;5.60;;;25.40;91.40;;;;;;4151474;28;20473;-84
2021/06/28 08:50:14;;;;;;;7.83;7.03;;;25.40;91.50;;;;;;4151281;28;20519;-83
2021/06/28 08:52:19;;;;;;;6.73;6.03;;;25.50;91.60;;;;;;4150941;28;20544;-83
2021/06/28 08:54:22;;;;;;;6.93;5.90;;;25.80;92.20;;;;;;4151105;28;20888;-84
2021/06/28 08:56:25;;;;;;;14.00;12.13;;;26.00;91.20;;;;;;4150908;28;20482;-83
2021/06/28 08:58:28;;;;;;;10.17;9.17;;;26.30;91.50;;;;;;4161662;28;20473;-84
2021/06/28 09:00:35;;;;;;;9.17;8.33;;;26.50;90.50;;;;;;4150468;28;20556;-83
2021/06/28 09:02:42;;;;;;;7.50;6.80;;;26.40;89.40;;;;;;4150955;28;20888;-84
2021/06/28 09:04:59;;;;;;;8.60;6.40;;;26.40;89.20;;;;;;4150955;28;20457;-83
2021/06/28 09:07:17;;;;;;;6.90;6.30;;;26.40;90.00;;;;;;4150960;28;20953;-83
2021/06/28 09:09:22;;;;;;;6.90;6.30;;;26.50;89.50;;;;;;4167308;28;20511;-84
2021/06/28 09:11:27;;;;;;;6.70;6.03;;;26.60;90.40;;;;;;4167394;28;20461;-83
2021/06/28 09:13:39;;;;;;;6.57;5.90;;;26.70;89.60;;;;;;4167752;28;20576;-83
2021/06/28 09:15:47;;;;;;;6.80;6.20;;;26.80;90.10;;;;;;4166930;28;20467;-83
2021/06/28 09:17:50;;;;;;;6.97;6.27;;;26.90;88.20;;;;;;4154480;28;20496;-83
2021/06/28 09:20:18;;;;;;;7.47;6.67;;;26.90;88.50;;;;;;4150820;28;20465;-83
2021/06/28 09:22:29;;;;;;;8.63;6.77;;;27.00;87.90;;;;;;4146515;28;20544;-83
2021/06/28 09:24:36;;;;;;;7.03;6.37;;;26.80;88.10;;;;;;4150748;28;20500;-83
2021/06/28 09:26:39;;;;;;;8.10;6.17;;;26.90;88.80;;;;;;4155595;28;20523;-83
2021/06/28 09:28:46;;;;;;;7.10;6.40;;;26.70;88.00;;;;;;4151362;28;20473;-83
2021/06/28 09:30:56;;;;;;;7.00;6.30;;;26.80;88.40;;;;;;4150221;28;20940;-83
2021/06/28 09:33:00;;;;;;;7.13;6.43;;;27.10;88.30;;;;;;4166361;28;20938;-84
2021/06/28 09:35:04;;;;;;;6.97;6.37;;;27.20;88.10;;;;;;4166101;28;20465;-84
2021/06/28 09:37:12;;;;;;;8.87;6.77;;;27.50;88.10;;;;;;4160465;28;20486;-84
2021/06/28 09:39:32;;;;;;;6.70;6.10;;;27.70;86.00;;;;;;4158584;28;20452;-84
2021/06/28 09:41:34;;;;;;;8.50;6.77;;;27.70;85.40;;;;;;4168298;28;20465;-83
2021/06/28 09:43:40;;;;;;;8.63;7.93;;;27.80;85.50;;;;;;4166801;28;20489;-83
2021/06/28 09:45:43;;;;;;;7.20;6.30;;;27.80;85.60;;;;;;4166680;28;20480;-84
2021/06/28 09:47:49;;;;;;;6.53;6.03;;;27.90;85.70;;;;;;4166678;28;20469;-84
2021/06/28 09:50:05;;;;;;;6.40;5.80;;;27.70;86.40;;;;;;4166457;28;20500;-83
2021/06/28 09:52:09;;;;;;;7.80;6.80;;;27.80;85.80;;;;;;4166656;28;20461;-83
2021/06/28 09:54:21;;;;;;;7.07;6.43;;;27.90;85.70;;;;;;4166711;28;20484;-84
2021/06/28 09:56:31;;;;;;;8.33;7.53;;;28.00;85.00;;;;;;4165642;28;20471;-83
2021/06/28 09:58:35;;;;;;;7.27;6.63;;;28.30;84.70;;;;;;4151246;28;20458;-83
2021/06/28 10:00:40;;;;;;;5.80;5.30;;;28.40;81.90;;;;;;4150208;28;20473;-83
2021/06/28 10:02:47;;;;;;;6.40;5.80;;;28.40;80.50;;;;;;4149971;28;20459;-84
2021/06/28 10:04:55;;;;;;;5.73;5.13;;;28.50;80.40;;;;;;4150178;28;20651;-84
2021/06/28 10:07:20;;;;;;;5.80;5.13;;;28.50;79.00;;;;;;4166488;28;20475;-83
2021/06/28 10:09:27;;;;;;;5.73;5.23;;;28.60;78.90;;;;;;4166481;28;20467;-83
2021/06/28 10:11:30;;;;;;;5.63;5.17;;;28.60;77.70;;;;;;4156308;28;20864;-84
2021/06/28 10:13:33;;;;;;;8.60;6.13;;;28.50;78.70;;;;;;4149950;28;20494;-84
2021/06/28 10:15:40;;;;;;;9.17;8.27;;;28.40;78.10;;;;;;4149998;28;20453;-83
2021/06/28 10:17:44;;;;;;;10.40;8.20;;;28.50;78.60;;;;;;4149830;28;20822;-84
2021/06/28 10:19:48;;;;;;;7.00;6.40;;;28.60;78.50;;;;;;4149633;28;20469;-84
2021/06/28 10:21:54;;;;;;;5.87;5.37;;;28.60;78.30;;;;;;4149652;28;20465;-84
2021/06/28 10:23:57;;;;;;;5.83;5.40;;;28.80;77.90;;;;;;4165945;28;20492;-84
2021/06/28 10:26:01;;;;;;;5.63;5.13;;;28.70;77.20;;;;;;4163634;28;20465;-83
2021/06/28 10:28:05;;;;;;;5.27;4.80;;;28.80;77.00;;;;;;4165957;28;20457;-84
2021/06/28 10:30:13;;;;;;;5.83;5.43;;;28.70;75.90;;;;;;4161181;28;20473;-84
2021/06/28 10:32:18;;;;;;;5.73;5.20;;;28.60;75.80;;;;;;4149436;28;20505;-83
2021/06/28 10:34:22;;;;;;;5.57;5.07;;;28.60;76.60;;;;;;4149610;28;20890;-84
2021/06/28 10:36:32;;;;;;;7.83;5.10;;;28.80;76.70;;;;;;4149226;28;20512;-84
2021/06/28 10:38:47;;;;;;;5.40;4.90;;;29.10;77.40;;;;;;4150044;28;20584;-83
2021/06/28 10:40:53;;;;;;;5.20;4.80;;;29.30;76.20;;;;;;4165000;28;21039;-83
2021/06/28 10:42:58;;;;;;;5.73;5.23;;;29.30;75.30;;;;;;4165674;28;20576;-83
2021/06/28 10:45:02;;;;;;;5.30;4.90;;;29.40;75.70;;;;;;4166504;28;20469;-84
2021/06/28 10:47:09;;;;;;;5.50;4.90;;;29.60;74.30;;;;;;4168002;28;20465;-84
2021/06/28 10:49:13;;;;;;;5.70;5.20;;;29.90;73.20;;;;;;4165929;28;20475;-83